sensor_id;sensor_type;location;lat;lon;timestamp;P1;durP1;ratioP1;P2;durP2;ratioP2
76439;SDS011;65274;44.982;20.060;2023-04-05T00:00:52;6.80;;;4.63;;
76439;SDS011;65274;44.982;20.060;2023-04-05T00:03:18;6.63;;;5.20;;
76439;SDS011;65274;44.982;20.060;2023-04-05T00:05:44;6.57;;;4.60;;
76439;SDS011;65274;44.982;20.060;2023-04-05T00:08:14;8.75;;;5.45;;
76439;SDS011;65274;44.982;20.060;2023-04-05T00:10:51;6.13;;;4.57;;
76439;SDS011;65274;44.982;20.060;2023-04-05T00:13:17;7.45;;;5.70;;
76439;SDS011;65274;44.982;20.060;2023-04-05T00:15:43;6.47;;;4.55;;
76439;SDS011;65274;44.982;20.060;2023-04-05T00:18:09;7.53;;;4.57;;
76439;SDS011;65274;44.982;20.060;2023-04-05T00:20:51;8.40;;;4.97;;
76439;SDS011;65274;44.982;20.060;2023-04-05T00:23:17;7.72;;;6.13;;
76439;SDS011;65274;44.982;20.060;2023-04-05T00:25:45;8.50;;;5.07;;
76439;SDS011;65274;44.982;20.060;2023-04-05T00:28:11;7.15;;;4.20;;
76439;SDS011;65274;44.982;20.060;2023-04-05T00:30:38;5.63;;;4.13;;
76439;SDS011;65274;44.982;20.060;2023-04-05T00:33:04;6.72;;;4.97;;
76439;SDS011;65274;44.982;20.060;2023-04-05T00:35:30;6.03;;;4.05;;
76439;SDS011;65274;44.982;20.060;2023-04-05T00:37:56;4.97;;;4.15;;
76439;SDS011;65274;44.982;20.060;2023-04-05T00:40:22;5.80;;;3.58;;
76439;SDS011;65274;44.982;20.060;2023-04-05T00:42:49;6.75;;;4.55;;
76439;SDS011;65274;44.982;20.060;2023-04-05T00:45:15;10.70;;;4.93;;
76439;SDS011;65274;44.982;20.060;2023-04-05T00:47:41;7.70;;;4.93;;
76439;SDS011;65274;44.982;20.060;2023-04-05T00:50:07;6.10;;;5.03;;
76439;SDS011;65274;44.982;20.060;2023-04-05T00:52:34;5.45;;;4.55;;
76439;SDS011;65274;44.982;20.060;2023-04-05T00:55:05;8.25;;;5.10;;
76439;SDS011;65274;44.982;20.060;2023-04-05T00:57:31;7.65;;;5.63;;
76439;SDS011;65274;44.982;20.060;2023-04-05T00:59:58;11.25;;;6.70;;
76439;SDS011;65274;44.982;20.060;2023-04-05T01:02:31;10.48;;;6.40;;
76439;SDS011;65274;44.982;20.060;2023-04-05T01:04:58;12.80;;;8.15;;
76439;SDS011;65274;44.982;20.060;2023-04-05T01:07:35;12.35;;;7.80;;
76439;SDS011;65274;44.982;20.060;2023-04-05T01:10:03;9.60;;;7.03;;
76439;SDS011;65274;44.982;20.060;2023-04-05T01:12:29;15.77;;;8.75;;
76439;SDS011;65274;44.982;20.060;2023-04-05T01:14:57;14.70;;;7.87;;
76439;SDS011;65274;44.982;20.060;2023-04-05T01:17:24;13.00;;;7.80;;
76439;SDS011;65274;44.982;20.060;2023-04-05T01:19:56;13.85;;;8.27;;
76439;SDS011;65274;44.982;20.060;2023-04-05T01:30:09;12.32;;;6.88;;
76439;SDS011;65274;44.982;20.060;2023-04-05T01:32:47;12.23;;;7.32;;
76439;SDS011;65274;44.982;20.060;2023-04-05T01:35:20;10.20;;;7.07;;
76439;SDS011;65274;44.982;20.060;2023-04-05T01:37:48;10.20;;;6.38;;
76439;SDS011;65274;44.982;20.060;2023-04-05T01:40:14;7.63;;;5.68;;
76439;SDS011;65274;44.982;20.060;2023-04-05T01:42:42;9.88;;;6.28;;
76439;SDS011;65274;44.982;20.060;2023-04-05T01:47:35;8.00;;;5.25;;
76439;SDS011;65274;44.982;20.060;2023-04-05T01:50:01;5.13;;;3.67;;
76439;SDS011;65274;44.982;20.060;2023-04-05T01:52:27;6.57;;;3.85;;
76439;SDS011;65274;44.982;20.060;2023-04-05T01:54:53;5.10;;;3.90;;
76439;SDS011;65274;44.982;20.060;2023-04-05T01:57:19;6.93;;;4.75;;
76439;SDS011;65274;44.982;20.060;2023-04-05T01:59:45;6.25;;;4.10;;
76439;SDS011;65274;44.982;20.060;2023-04-05T02:02:11;7.07;;;4.28;;
76439;SDS011;65274;44.982;20.060;2023-04-05T02:04:37;6.93;;;4.65;;
76439;SDS011;65274;44.982;20.060;2023-04-05T02:07:03;5.72;;;4.15;;
76439;SDS011;65274;44.982;20.060;2023-04-05T02:09:29;6.45;;;4.07;;
76439;SDS011;65274;44.982;20.060;2023-04-05T02:11:55;5.93;;;4.45;;
76439;SDS011;65274;44.982;20.060;2023-04-05T02:14:23;7.60;;;4.65;;
76439;SDS011;65274;44.982;20.060;2023-04-05T02:16:49;9.38;;;6.10;;
76439;SDS011;65274;44.982;20.060;2023-04-05T02:19:15;7.03;;;4.28;;
76439;SDS011;65274;44.982;20.060;2023-04-05T02:21:47;7.60;;;4.50;;
76439;SDS011;65274;44.982;20.060;2023-04-05T02:24:13;6.30;;;4.75;;
76439;SDS011;65274;44.982;20.060;2023-04-05T02:26:39;6.03;;;4.18;;
76439;SDS011;65274;44.982;20.060;2023-04-05T02:29:05;5.85;;;4.18;;
76439;SDS011;65274;44.982;20.060;2023-04-05T02:31:32;8.27;;;4.57;;
76439;SDS011;65274;44.982;20.060;2023-04-05T02:33:58;8.10;;;4.63;;
76439;SDS011;65274;44.982;20.060;2023-04-05T02:36:25;7.32;;;4.68;;
76439;SDS011;65274;44.982;20.060;2023-04-05T02:38:52;9.60;;;5.00;;
76439;SDS011;65274;44.982;20.060;2023-04-05T02:41:18;8.25;;;5.75;;
76439;SDS011;65274;44.982;20.060;2023-04-05T02:43:46;8.73;;;4.78;;
76439;SDS011;65274;44.982;20.060;2023-04-05T02:46:12;9.38;;;5.35;;
76439;SDS011;65274;44.982;20.060;2023-04-05T02:48:38;5.97;;;5.15;;
76439;SDS011;65274;44.982;20.060;2023-04-05T02:51:05;8.18;;;5.30;;
76439;SDS011;65274;44.982;20.060;2023-04-05T02:53:31;5.50;;;4.32;;
76439;SDS011;65274;44.982;20.060;2023-04-05T02:55:57;8.38;;;4.75;;
76439;SDS011;65274;44.982;20.060;2023-04-05T02:58:24;10.38;;;4.93;;
76439;SDS011;65274;44.982;20.060;2023-04-05T03:00:50;6.25;;;5.00;;
76439;SDS011;65274;44.982;20.060;2023-04-05T03:03:18;7.10;;;5.22;;
76439;SDS011;65274;44.982;20.060;2023-04-05T03:05:45;7.13;;;4.68;;
76439;SDS011;65274;44.982;20.060;2023-04-05T03:08:12;7.97;;;5.43;;
76439;SDS011;65274;44.982;20.060;2023-04-05T03:10:42;8.13;;;4.60;;
76439;SDS011;65274;44.982;20.060;2023-04-05T03:13:09;5.82;;;4.80;;
76439;SDS011;65274;44.982;20.060;2023-04-05T03:15:35;10.63;;;6.50;;
76439;SDS011;65274;44.982;20.060;2023-04-05T03:18:01;11.05;;;6.55;;
76439;SDS011;65274;44.982;20.060;2023-04-05T03:20:28;7.65;;;5.68;;
76439;SDS011;65274;44.982;20.060;2023-04-05T03:22:54;12.85;;;6.93;;
76439;SDS011;65274;44.982;20.060;2023-04-05T03:25:21;8.85;;;6.22;;
76439;SDS011;65274;44.982;20.060;2023-04-05T03:27:47;9.82;;;6.90;;
76439;SDS011;65274;44.982;20.060;2023-04-05T03:30:13;8.77;;;5.35;;
76439;SDS011;65274;44.982;20.060;2023-04-05T03:32:39;9.95;;;6.18;;
76439;SDS011;65274;44.982;20.060;2023-04-05T03:35:05;9.43;;;5.47;;
76439;SDS011;65274;44.982;20.060;2023-04-05T03:37:31;6.30;;;4.78;;
76439;SDS011;65274;44.982;20.060;2023-04-05T03:39:57;6.97;;;4.88;;
76439;SDS011;65274;44.982;20.060;2023-04-05T03:42:23;8.07;;;4.85;;
76439;SDS011;65274;44.982;20.060;2023-04-05T03:44:51;10.32;;;5.32;;
76439;SDS011;65274;44.982;20.060;2023-04-05T03:47:17;7.80;;;5.97;;
76439;SDS011;65274;44.982;20.060;2023-04-05T03:49:43;10.38;;;6.32;;
76439;SDS011;65274;44.982;20.060;2023-04-05T03:52:09;12.88;;;6.45;;
76439;SDS011;65274;44.982;20.060;2023-04-05T03:54:35;11.63;;;6.22;;
76439;SDS011;65274;44.982;20.060;2023-04-05T03:57:01;14.02;;;5.55;;
76439;SDS011;65274;44.982;20.060;2023-04-05T03:59:27;11.85;;;6.47;;
76439;SDS011;65274;44.982;20.060;2023-04-05T04:01:53;8.68;;;5.43;;
76439;SDS011;65274;44.982;20.060;2023-04-05T04:04:19;6.10;;;4.93;;
76439;SDS011;65274;44.982;20.060;2023-04-05T04:06:46;8.07;;;5.43;;
76439;SDS011;65274;44.982;20.060;2023-04-05T04:09:12;7.88;;;5.15;;
76439;SDS011;65274;44.982;20.060;2023-04-05T04:11:38;6.80;;;4.60;;
76439;SDS011;65274;44.982;20.060;2023-04-05T04:14:04;9.23;;;5.60;;
76439;SDS011;65274;44.982;20.060;2023-04-05T04:16:30;6.72;;;4.95;;
76439;SDS011;65274;44.982;20.060;2023-04-05T04:18:56;7.63;;;4.93;;
76439;SDS011;65274;44.982;20.060;2023-04-05T04:21:22;6.85;;;5.53;;
76439;SDS011;65274;44.982;20.060;2023-04-05T04:23:52;6.93;;;6.10;;
76439;SDS011;65274;44.982;20.060;2023-04-05T04:26:19;10.52;;;6.30;;
76439;SDS011;65274;44.982;20.060;2023-04-05T04:28:52;9.75;;;6.57;;
76439;SDS011;65274;44.982;20.060;2023-04-05T04:31:19;8.45;;;5.88;;
76439;SDS011;65274;44.982;20.060;2023-04-05T04:33:48;6.43;;;4.90;;
76439;SDS011;65274;44.982;20.060;2023-04-05T04:36:15;9.57;;;6.10;;
76439;SDS011;65274;44.982;20.060;2023-04-05T04:38:42;10.13;;;5.63;;
76439;SDS011;65274;44.982;20.060;2023-04-05T04:41:09;10.50;;;6.65;;
76439;SDS011;65274;44.982;20.060;2023-04-05T04:43:35;8.98;;;5.47;;
76439;SDS011;65274;44.982;20.060;2023-04-05T04:46:07;7.75;;;5.68;;
76439;SDS011;65274;44.982;20.060;2023-04-05T04:48:40;8.25;;;4.93;;
76439;SDS011;65274;44.982;20.060;2023-04-05T04:51:10;9.73;;;6.07;;
76439;SDS011;65274;44.982;20.060;2023-04-05T04:53:36;11.10;;;5.97;;
76439;SDS011;65274;44.982;20.060;2023-04-05T04:56:05;11.45;;;6.63;;
76439;SDS011;65274;44.982;20.060;2023-04-05T04:58:32;8.95;;;6.70;;
76439;SDS011;65274;44.982;20.060;2023-04-05T05:00:58;13.13;;;6.55;;
76439;SDS011;65274;44.982;20.060;2023-04-05T05:03:25;10.07;;;6.32;;
76439;SDS011;65274;44.982;20.060;2023-04-05T05:05:51;7.25;;;5.75;;
76439;SDS011;65274;44.982;20.060;2023-04-05T05:08:17;9.50;;;5.85;;
76439;SDS011;65274;44.982;20.060;2023-04-05T05:10:43;11.32;;;5.85;;
76439;SDS011;65274;44.982;20.060;2023-04-05T05:13:09;10.68;;;6.65;;
76439;SDS011;65274;44.982;20.060;2023-04-05T05:15:37;12.88;;;7.10;;
76439;SDS011;65274;44.982;20.060;2023-04-05T05:18:03;10.33;;;7.27;;
76439;SDS011;65274;44.982;20.060;2023-04-05T05:20:29;11.18;;;7.15;;
76439;SDS011;65274;44.982;20.060;2023-04-05T05:22:57;10.02;;;6.22;;
76439;SDS011;65274;44.982;20.060;2023-04-05T05:25:25;12.80;;;8.43;;
76439;SDS011;65274;44.982;20.060;2023-04-05T05:27:51;12.60;;;7.97;;
76439;SDS011;65274;44.982;20.060;2023-04-05T05:30:17;12.07;;;8.02;;
76439;SDS011;65274;44.982;20.060;2023-04-05T05:32:45;15.38;;;8.60;;
76439;SDS011;65274;44.982;20.060;2023-04-05T05:35:11;13.63;;;8.55;;
76439;SDS011;65274;44.982;20.060;2023-04-05T05:37:37;21.95;;;9.35;;
76439;SDS011;65274;44.982;20.060;2023-04-05T05:40:03;30.70;;;13.43;;
76439;SDS011;65274;44.982;20.060;2023-04-05T05:42:29;16.33;;;11.18;;
76439;SDS011;65274;44.982;20.060;2023-04-05T05:45:02;13.38;;;8.68;;
76439;SDS011;65274;44.982;20.060;2023-04-05T05:47:28;17.00;;;8.40;;
76439;SDS011;65274;44.982;20.060;2023-04-05T05:49:54;11.75;;;8.00;;
76439;SDS011;65274;44.982;20.060;2023-04-05T05:52:20;17.52;;;10.20;;
76439;SDS011;65274;44.982;20.060;2023-04-05T05:54:46;12.15;;;7.57;;
76439;SDS011;65274;44.982;20.060;2023-04-05T05:57:13;13.50;;;8.02;;
76439;SDS011;65274;44.982;20.060;2023-04-05T05:59:39;13.98;;;7.72;;
76439;SDS011;65274;44.982;20.060;2023-04-05T06:02:06;13.10;;;7.68;;
76439;SDS011;65274;44.982;20.060;2023-04-05T06:04:32;12.20;;;7.95;;
76439;SDS011;65274;44.982;20.060;2023-04-05T06:06:58;23.17;;;10.45;;
76439;SDS011;65274;44.982;20.060;2023-04-05T06:09:26;24.80;;;11.38;;
76439;SDS011;65274;44.982;20.060;2023-04-05T06:11:52;24.52;;;11.98;;
76439;SDS011;65274;44.982;20.060;2023-04-05T06:14:20;35.33;;;14.63;;
76439;SDS011;65274;44.982;20.060;2023-04-05T06:16:46;27.00;;;10.85;;
76439;SDS011;65274;44.982;20.060;2023-04-05T06:19:12;31.27;;;13.23;;
76439;SDS011;65274;44.982;20.060;2023-04-05T06:21:38;24.88;;;11.35;;
76439;SDS011;65274;44.982;20.060;2023-04-05T06:24:04;15.95;;;8.60;;
76439;SDS011;65274;44.982;20.060;2023-04-05T06:26:30;11.32;;;7.22;;
76439;SDS011;65274;44.982;20.060;2023-04-05T06:28:56;13.98;;;8.63;;
76439;SDS011;65274;44.982;20.060;2023-04-05T06:31:26;14.25;;;9.32;;
76439;SDS011;65274;44.982;20.060;2023-04-05T06:33:52;15.82;;;10.10;;
76439;SDS011;65274;44.982;20.060;2023-04-05T06:36:19;20.92;;;13.02;;
76439;SDS011;65274;44.982;20.060;2023-04-05T06:38:45;19.08;;;12.75;;
76439;SDS011;65274;44.982;20.060;2023-04-05T06:41:11;175.30;;;79.93;;
76439;SDS011;65274;44.982;20.060;2023-04-05T06:43:37;96.22;;;43.92;;
76439;SDS011;65274;44.982;20.060;2023-04-05T06:46:03;35.45;;;18.77;;
76439;SDS011;65274;44.982;20.060;2023-04-05T06:48:32;76.93;;;41.78;;
76439;SDS011;65274;44.982;20.060;2023-04-05T06:50:59;128.95;;;65.05;;
76439;SDS011;65274;44.982;20.060;2023-04-05T06:53:26;34.95;;;20.98;;
76439;SDS011;65274;44.982;20.060;2023-04-05T06:55:53;76.75;;;44.03;;
76439;SDS011;65274;44.982;20.060;2023-04-05T06:58:19;133.55;;;70.78;;
76439;SDS011;65274;44.982;20.060;2023-04-05T07:00:45;91.85;;;48.15;;
76439;SDS011;65274;44.982;20.060;2023-04-05T07:03:11;51.53;;;28.45;;
76439;SDS011;65274;44.982;20.060;2023-04-05T07:05:37;247.45;;;111.72;;
76439;SDS011;65274;44.982;20.060;2023-04-05T07:08:03;146.75;;;75.15;;
76439;SDS011;65274;44.982;20.060;2023-04-05T07:10:29;54.97;;;31.40;;
76439;SDS011;65274;44.982;20.060;2023-04-05T07:12:55;292.15;;;149.05;;
76439;SDS011;65274;44.982;20.060;2023-04-05T07:15:22;125.82;;;67.88;;
76439;SDS011;65274;44.982;20.060;2023-04-05T07:17:48;227.95;;;130.20;;
76439;SDS011;65274;44.982;20.060;2023-04-05T07:20:14;144.32;;;78.10;;
76439;SDS011;65274;44.982;20.060;2023-04-05T07:22:40;39.97;;;26.33;;
76439;SDS011;65274;44.982;20.060;2023-04-05T07:25:06;154.05;;;88.03;;
76439;SDS011;65274;44.982;20.060;2023-04-05T07:27:33;96.05;;;53.15;;
76439;SDS011;65274;44.982;20.060;2023-04-05T07:30:00;33.50;;;19.35;;
76439;SDS011;65274;44.982;20.060;2023-04-05T07:32:26;44.58;;;28.15;;
76439;SDS011;65274;44.982;20.060;2023-04-05T07:34:52;60.78;;;38.22;;
76439;SDS011;65274;44.982;20.060;2023-04-05T07:37:18;27.88;;;19.83;;
76439;SDS011;65274;44.982;20.060;2023-04-05T07:39:44;19.80;;;17.25;;
76439;SDS011;65274;44.982;20.060;2023-04-05T07:42:10;16.23;;;10.82;;
76439;SDS011;65274;44.982;20.060;2023-04-05T07:44:36;28.05;;;21.90;;
76439;SDS011;65274;44.982;20.060;2023-04-05T07:47:02;13.50;;;9.30;;
76439;SDS011;65274;44.982;20.060;2023-04-05T07:49:28;17.83;;;8.63;;
76439;SDS011;65274;44.982;20.060;2023-04-05T07:51:57;12.95;;;8.52;;
76439;SDS011;65274;44.982;20.060;2023-04-05T07:54:24;15.23;;;9.35;;
76439;SDS011;65274;44.982;20.060;2023-04-05T07:56:50;16.58;;;10.52;;
76439;SDS011;65274;44.982;20.060;2023-04-05T08:01:46;15.85;;;11.27;;
76439;SDS011;65274;44.982;20.060;2023-04-05T08:04:12;11.30;;;7.78;;
76439;SDS011;65274;44.982;20.060;2023-04-05T08:06:38;11.38;;;8.13;;
76439;SDS011;65274;44.982;20.060;2023-04-05T08:09:04;12.20;;;8.50;;
76439;SDS011;65274;44.982;20.060;2023-04-05T08:11:30;9.43;;;7.07;;
76439;SDS011;65274;44.982;20.060;2023-04-05T08:13:57;12.35;;;7.20;;
76439;SDS011;65274;44.982;20.060;2023-04-05T08:16:23;17.75;;;11.65;;
76439;SDS011;65274;44.982;20.060;2023-04-05T08:18:49;15.35;;;11.18;;
76439;SDS011;65274;44.982;20.060;2023-04-05T08:21:15;11.98;;;8.10;;
76439;SDS011;65274;44.982;20.060;2023-04-05T08:23:41;13.73;;;8.80;;
76439;SDS011;65274;44.982;20.060;2023-04-05T08:26:07;14.40;;;8.38;;
76439;SDS011;65274;44.982;20.060;2023-04-05T08:28:33;9.85;;;7.00;;
76439;SDS011;65274;44.982;20.060;2023-04-05T08:31:00;12.85;;;11.52;;
76439;SDS011;65274;44.982;20.060;2023-04-05T08:33:26;16.63;;;12.82;;
76439;SDS011;65274;44.982;20.060;2023-04-05T08:38:21;11.30;;;7.25;;
76439;SDS011;65274;44.982;20.060;2023-04-05T08:40:47;53.60;;;35.78;;
76439;SDS011;65274;44.982;20.060;2023-04-05T08:45:43;29.92;;;20.15;;
76439;SDS011;65274;44.982;20.060;2023-04-05T08:48:11;33.38;;;24.55;;
76439;SDS011;65274;44.982;20.060;2023-04-05T08:50:38;16.42;;;10.77;;
76439;SDS011;65274;44.982;20.060;2023-04-05T08:53:05;17.42;;;10.70;;
76439;SDS011;65274;44.982;20.060;2023-04-05T08:55:34;23.05;;;13.45;;
76439;SDS011;65274;44.982;20.060;2023-04-05T08:58:00;14.18;;;8.77;;
76439;SDS011;65274;44.982;20.060;2023-04-05T09:00:28;13.35;;;9.70;;
76439;SDS011;65274;44.982;20.060;2023-04-05T09:02:55;12.48;;;8.65;;
76439;SDS011;65274;44.982;20.060;2023-04-05T09:05:23;18.15;;;11.07;;
76439;SDS011;65274;44.982;20.060;2023-04-05T09:07:49;13.68;;;9.38;;
76439;SDS011;65274;44.982;20.060;2023-04-05T09:10:17;23.55;;;15.15;;
76439;SDS011;65274;44.982;20.060;2023-04-05T09:12:44;40.65;;;23.85;;
76439;SDS011;65274;44.982;20.060;2023-04-05T09:15:10;25.88;;;15.55;;
76439;SDS011;65274;44.982;20.060;2023-04-05T09:17:39;19.75;;;14.75;;
76439;SDS011;65274;44.982;20.060;2023-04-05T09:20:06;14.25;;;9.43;;
76439;SDS011;65274;44.982;20.060;2023-04-05T09:22:40;24.63;;;16.98;;
76439;SDS011;65274;44.982;20.060;2023-04-05T09:25:07;16.67;;;12.32;;
76439;SDS011;65274;44.982;20.060;2023-04-05T09:27:33;21.92;;;13.65;;
76439;SDS011;65274;44.982;20.060;2023-04-05T09:29:59;27.33;;;21.10;;
76439;SDS011;65274;44.982;20.060;2023-04-05T09:32:25;40.70;;;25.00;;
76439;SDS011;65274;44.982;20.060;2023-04-05T09:34:53;34.13;;;19.57;;
76439;SDS011;65274;44.982;20.060;2023-04-05T09:37:19;37.78;;;24.77;;
76439;SDS011;65274;44.982;20.060;2023-04-05T09:39:47;78.57;;;39.25;;
76439;SDS011;65274;44.982;20.060;2023-04-05T09:42:18;28.52;;;15.60;;
76439;SDS011;65274;44.982;20.060;2023-04-05T09:44:59;73.70;;;39.13;;
76439;SDS011;65274;44.982;20.060;2023-04-05T09:47:31;102.03;;;51.65;;
76439;SDS011;65274;44.982;20.060;2023-04-05T09:50:00;54.33;;;27.85;;
76439;SDS011;65274;44.982;20.060;2023-04-05T09:52:30;87.80;;;42.72;;
76439;SDS011;65274;44.982;20.060;2023-04-05T09:54:57;195.77;;;86.05;;
76439;SDS011;65274;44.982;20.060;2023-04-05T09:57:24;169.10;;;77.00;;
76439;SDS011;65274;44.982;20.060;2023-04-05T09:59:51;81.95;;;35.92;;
76439;SDS011;65274;44.982;20.060;2023-04-05T10:02:17;96.75;;;50.05;;
76439;SDS011;65274;44.982;20.060;2023-04-05T10:04:44;53.88;;;29.30;;
76439;SDS011;65274;44.982;20.060;2023-04-05T10:07:11;81.60;;;40.38;;
76439;SDS011;65274;44.982;20.060;2023-04-05T10:09:38;54.85;;;32.70;;
76439;SDS011;65274;44.982;20.060;2023-04-05T10:12:05;34.13;;;19.05;;
76439;SDS011;65274;44.982;20.060;2023-04-05T10:14:31;62.58;;;39.25;;
76439;SDS011;65274;44.982;20.060;2023-04-05T10:17:11;48.65;;;31.83;;
76439;SDS011;65274;44.982;20.060;2023-04-05T10:19:49;39.80;;;26.80;;
76439;SDS011;65274;44.982;20.060;2023-04-05T10:22:23;47.63;;;30.80;;
76439;SDS011;65274;44.982;20.060;2023-04-05T10:24:54;78.45;;;41.38;;
76439;SDS011;65274;44.982;20.060;2023-04-05T10:27:27;35.95;;;21.65;;
76439;SDS011;65274;44.982;20.060;2023-04-05T10:30:04;36.85;;;20.40;;
76439;SDS011;65274;44.982;20.060;2023-04-05T10:40:16;124.40;;;62.30;;
76439;SDS011;65274;44.982;20.060;2023-04-05T10:42:43;85.10;;;43.38;;
76439;SDS011;65274;44.982;20.060;2023-04-05T10:45:12;66.90;;;34.88;;
76439;SDS011;65274;44.982;20.060;2023-04-05T10:47:41;77.25;;;43.63;;
76439;SDS011;65274;44.982;20.060;2023-04-05T10:50:11;82.53;;;43.78;;
76439;SDS011;65274;44.982;20.060;2023-04-05T10:52:41;105.68;;;53.80;;
76439;SDS011;65274;44.982;20.060;2023-04-05T10:55:07;91.78;;;51.17;;
76439;SDS011;65274;44.982;20.060;2023-04-05T10:57:35;44.25;;;30.35;;
76439;SDS011;65274;44.982;20.060;2023-04-05T11:00:02;24.80;;;20.27;;
76439;SDS011;65274;44.982;20.060;2023-04-05T11:02:28;13.18;;;10.07;;
76439;SDS011;65274;44.982;20.060;2023-04-05T11:04:55;11.40;;;7.00;;
76439;SDS011;65274;44.982;20.060;2023-04-05T11:07:21;11.05;;;8.80;;
76439;SDS011;65274;44.982;20.060;2023-04-05T11:10:00;9.65;;;8.13;;
76439;SDS011;65274;44.982;20.060;2023-04-05T11:15:27;15.68;;;10.45;;
76439;SDS011;65274;44.982;20.060;2023-04-05T11:20:27;12.25;;;9.07;;
76439;SDS011;65274;44.982;20.060;2023-04-05T11:23:04;10.27;;;6.97;;
76439;SDS011;65274;44.982;20.060;2023-04-05T11:25:31;9.02;;;6.57;;
76439;SDS011;65274;44.982;20.060;2023-04-05T11:28:02;11.43;;;7.40;;
76439;SDS011;65274;44.982;20.060;2023-04-05T11:30:48;11.35;;;7.70;;
76439;SDS011;65274;44.982;20.060;2023-04-05T11:33:38;8.57;;;6.45;;
76439;SDS011;65274;44.982;20.060;2023-04-05T11:36:04;11.45;;;7.20;;
76439;SDS011;65274;44.982;20.060;2023-04-05T11:38:30;11.05;;;7.13;;
76439;SDS011;65274;44.982;20.060;2023-04-05T11:43:42;10.30;;;7.60;;
76439;SDS011;65274;44.982;20.060;2023-04-05T11:46:08;16.52;;;6.63;;
76439;SDS011;65274;44.982;20.060;2023-04-05T11:48:34;8.77;;;6.88;;
76439;SDS011;65274;44.982;20.060;2023-04-05T11:51:04;9.10;;;6.72;;
76439;SDS011;65274;44.982;20.060;2023-04-05T11:53:32;11.25;;;8.35;;
76439;SDS011;65274;44.982;20.060;2023-04-05T11:56:05;13.55;;;8.20;;
76439;SDS011;65274;44.982;20.060;2023-04-05T11:58:31;10.68;;;6.95;;
76439;SDS011;65274;44.982;20.060;2023-04-05T12:00:58;11.95;;;6.82;;
76439;SDS011;65274;44.982;20.060;2023-04-05T12:03:25;12.20;;;7.65;;
76439;SDS011;65274;44.982;20.060;2023-04-05T12:05:53;12.45;;;8.98;;
76439;SDS011;65274;44.982;20.060;2023-04-05T12:08:20;11.60;;;8.52;;
76439;SDS011;65274;44.982;20.060;2023-04-05T12:10:56;15.00;;;8.52;;
76439;SDS011;65274;44.982;20.060;2023-04-05T12:13:28;14.70;;;9.10;;
76439;SDS011;65274;44.982;20.060;2023-04-05T12:15:58;10.10;;;7.47;;
76439;SDS011;65274;44.982;20.060;2023-04-05T12:18:25;60.95;;;33.38;;
76439;SDS011;65274;44.982;20.060;2023-04-05T12:20:52;21.92;;;12.32;;
76439;SDS011;65274;44.982;20.060;2023-04-05T12:23:18;30.80;;;19.90;;
76439;SDS011;65274;44.982;20.060;2023-04-05T12:25:48;42.33;;;26.50;;
76439;SDS011;65274;44.982;20.060;2023-04-05T12:28:14;41.60;;;24.17;;
76439;SDS011;65274;44.982;20.060;2023-04-05T12:30:50;22.08;;;13.77;;
76439;SDS011;65274;44.982;20.060;2023-04-05T12:33:29;79.78;;;41.22;;
76439;SDS011;65274;44.982;20.060;2023-04-05T12:35:56;33.55;;;17.58;;
76439;SDS011;65274;44.982;20.060;2023-04-05T12:38:26;62.67;;;32.95;;
76439;SDS011;65274;44.982;20.060;2023-04-05T12:40:52;175.13;;;88.28;;
76439;SDS011;65274;44.982;20.060;2023-04-05T12:43:19;144.13;;;69.60;;
76439;SDS011;65274;44.982;20.060;2023-04-05T12:45:45;165.90;;;82.18;;
76439;SDS011;65274;44.982;20.060;2023-04-05T12:48:14;216.27;;;100.88;;
76439;SDS011;65274;44.982;20.060;2023-04-05T12:50:46;74.13;;;35.83;;
76439;SDS011;65274;44.982;20.060;2023-04-05T12:53:16;118.40;;;59.85;;
76439;SDS011;65274;44.982;20.060;2023-04-05T12:55:42;162.63;;;77.22;;
76439;SDS011;65274;44.982;20.060;2023-04-05T12:58:12;276.27;;;123.57;;
76439;SDS011;65274;44.982;20.060;2023-04-05T13:00:38;255.10;;;115.80;;
76439;SDS011;65274;44.982;20.060;2023-04-05T13:03:04;107.03;;;49.55;;
76439;SDS011;65274;44.982;20.060;2023-04-05T13:05:30;148.05;;;71.50;;
76439;SDS011;65274;44.982;20.060;2023-04-05T13:07:57;110.10;;;59.80;;
76439;SDS011;65274;44.982;20.060;2023-04-05T13:10:24;33.80;;;20.67;;
76439;SDS011;65274;44.982;20.060;2023-04-05T13:12:50;253.93;;;139.13;;
76439;SDS011;65274;44.982;20.060;2023-04-05T13:15:16;157.68;;;84.80;;
76439;SDS011;65274;44.982;20.060;2023-04-05T13:17:43;113.28;;;62.90;;
76439;SDS011;65274;44.982;20.060;2023-04-05T13:20:09;227.13;;;98.07;;
76439;SDS011;65274;44.982;20.060;2023-04-05T13:22:36;55.63;;;28.83;;
76439;SDS011;65274;44.982;20.060;2023-04-05T13:25:02;46.22;;;27.98;;
76439;SDS011;65274;44.982;20.060;2023-04-05T13:27:29;53.28;;;28.98;;
76439;SDS011;65274;44.982;20.060;2023-04-05T13:29:55;59.65;;;34.35;;
76439;SDS011;65274;44.982;20.060;2023-04-05T13:32:21;15.18;;;9.10;;
76439;SDS011;65274;44.982;20.060;2023-04-05T13:34:48;19.40;;;11.23;;
76439;SDS011;65274;44.982;20.060;2023-04-05T13:37:14;16.63;;;9.30;;
76439;SDS011;65274;44.982;20.060;2023-04-05T13:39:40;15.77;;;9.82;;
76439;SDS011;65274;44.982;20.060;2023-04-05T13:42:06;20.02;;;9.18;;
76439;SDS011;65274;44.982;20.060;2023-04-05T13:44:32;15.02;;;8.50;;
76439;SDS011;65274;44.982;20.060;2023-04-05T13:46:59;18.58;;;9.25;;
76439;SDS011;65274;44.982;20.060;2023-04-05T13:49:25;14.88;;;9.95;;
76439;SDS011;65274;44.982;20.060;2023-04-05T13:51:51;15.23;;;9.23;;
76439;SDS011;65274;44.982;20.060;2023-04-05T13:54:17;12.55;;;8.90;;
76439;SDS011;65274;44.982;20.060;2023-04-05T13:56:43;12.23;;;8.05;;
76439;SDS011;65274;44.982;20.060;2023-04-05T13:59:10;13.73;;;9.95;;
76439;SDS011;65274;44.982;20.060;2023-04-05T14:01:40;31.63;;;21.13;;
76439;SDS011;65274;44.982;20.060;2023-04-05T14:04:06;42.88;;;27.35;;
76439;SDS011;65274;44.982;20.060;2023-04-05T14:06:33;14.15;;;10.48;;
76439;SDS011;65274;44.982;20.060;2023-04-05T14:08:59;19.13;;;12.30;;
76439;SDS011;65274;44.982;20.060;2023-04-05T14:11:25;19.98;;;11.88;;
76439;SDS011;65274;44.982;20.060;2023-04-05T14:13:51;127.18;;;59.40;;
76439;SDS011;65274;44.982;20.060;2023-04-05T14:16:17;144.82;;;49.47;;
76439;SDS011;65274;44.982;20.060;2023-04-05T14:18:43;187.25;;;74.20;;
76439;SDS011;65274;44.982;20.060;2023-04-05T14:21:09;54.85;;;24.73;;
76439;SDS011;65274;44.982;20.060;2023-04-05T14:23:36;18.25;;;10.23;;
76439;SDS011;65274;44.982;20.060;2023-04-05T14:26:02;42.80;;;21.50;;
76439;SDS011;65274;44.982;20.060;2023-04-05T14:28:28;24.23;;;14.48;;
76439;SDS011;65274;44.982;20.060;2023-04-05T14:30:54;26.20;;;15.07;;
76439;SDS011;65274;44.982;20.060;2023-04-05T14:33:22;104.85;;;46.25;;
76439;SDS011;65274;44.982;20.060;2023-04-05T14:35:48;98.30;;;45.28;;
76439;SDS011;65274;44.982;20.060;2023-04-05T14:38:14;40.60;;;21.85;;
76439;SDS011;65274;44.982;20.060;2023-04-05T14:40:41;37.03;;;19.77;;
76439;SDS011;65274;44.982;20.060;2023-04-05T14:43:07;326.02;;;162.60;;
76439;SDS011;65274;44.982;20.060;2023-04-05T14:45:33;48.67;;;25.77;;
76439;SDS011;65274;44.982;20.060;2023-04-05T14:47:59;136.98;;;62.05;;
76439;SDS011;65274;44.982;20.060;2023-04-05T14:50:26;33.50;;;18.70;;
76439;SDS011;65274;44.982;20.060;2023-04-05T14:52:55;28.98;;;16.88;;